Time;durP1;ratioP1;P1;durP2;ratioP2;P2;SDS_P1;SDS_P2;PMS_P1;PMS_P2;Temp;Humidity;BMP_temperature;BMP_pressure;BME280_temperature;BME280_humidity;BME280_pressure;Samples;Min_cycle;Max_cycle;Signal;HPM_P1;HPM_P2
2022/10/04 00:00:42;;;;;;;5.47;4.00;;;12.10;99.90;;;;;;5075466;28;20052;-65
2022/10/04 00:03:11;;;;;;;6.97;4.40;;;12.00;99.90;;;;;;5074847;28;20048;-65
2022/10/04 00:05:40;;;;;;;10.95;4.63;;;12.00;99.90;;;;;;5075297;28;20041;-66
2022/10/04 00:08:50;;;;;;;7.88;4.57;;;12.00;99.90;;;;;;5074715;28;20048;-65
2022/10/04 00:11:23;;;;;;;7.28;4.00;;;12.00;99.90;;;;;;5050501;28;20059;-66
2022/10/04 00:13:53;;;;;;;8.65;4.57;;;12.00;99.90;;;;;;5074808;28;20045;-66
2022/10/04 00:16:36;;;;;;;6.57;4.43;;;11.90;99.90;;;;;;5074138;28;20131;-66
2022/10/04 00:19:14;;;;;;;7.65;4.45;;;11.90;99.90;;;;;;5074507;28;20051;-66
2022/10/04 00:21:52;;;;;;;9.40;4.82;;;11.90;99.90;;;;;;5073764;28;20574;-66
2022/10/04 00:24:20;;;;;;;6.78;4.35;;;11.90;99.90;;;;;;5073232;28;20070;-66
2022/10/04 00:26:46;;;;;;;10.20;4.78;;;11.90;99.90;;;;;;5072835;28;20051;-66
2022/10/04 00:29:34;;;;;;;7.72;5.15;;;11.90;99.90;;;;;;5073904;28;20040;-65
2022/10/04 00:32:09;;;;;;;6.95;4.65;;;11.90;99.90;;;;;;5074808;28;20401;-65
2022/10/04 00:34:35;;;;;;;8.07;5.32;;;11.90;99.90;;;;;;5074129;28;20052;-66
2022/10/04 00:37:13;;;;;;;8.32;4.72;;;12.00;99.90;;;;;;5074373;28;20044;-66
2022/10/04 00:39:42;;;;;;;9.35;4.35;;;11.90;99.90;;;;;;5073965;28;20056;-66
2022/10/04 00:42:10;;;;;;;8.13;4.78;;;11.90;99.90;;;;;;5074524;28;20045;-66
2022/10/04 00:44:48;;;;;;;6.78;5.05;;;11.90;99.90;;;;;;5072669;28;20041;-66
2022/10/04 00:47:33;;;;;;;8.45;5.00;;;11.90;99.90;;;;;;5074653;28;20049;-65
2022/10/04 00:50:23;;;;;;;6.35;4.60;;;11.90;99.90;;;;;;5074757;28;20189;-65
2022/10/04 00:52:53;;;;;;;10.30;4.72;;;12.00;99.90;;;;;;5073766;28;20052;-66
2022/10/04 00:55:38;;;;;;;7.03;4.47;;;11.90;99.90;;;;;;5073823;28;20044;-66
2022/10/04 00:58:14;;;;;;;9.23;4.50;;;12.00;99.90;;;;;;5074114;28;20101;-64
2022/10/04 01:00:42;;;;;;;5.75;4.53;;;11.90;99.90;;;;;;5074048;28;20555;-64
2022/10/04 01:03:17;;;;;;;7.00;5.00;;;11.90;99.90;;;;;;5073699;28;20052;-65
2022/10/04 01:05:52;;;;;;;8.68;4.55;;;11.80;99.90;;;;;;5073600;28;20477;-65
2022/10/04 01:08:35;;;;;;;8.68;4.57;;;11.80;99.90;;;;;;5074181;28;20128;-65
2022/10/04 01:11:08;;;;;;;6.97;4.60;;;11.80;99.90;;;;;;5073669;28;20044;-65
2022/10/04 01:13:43;;;;;;;6.68;4.50;;;11.80;99.90;;;;;;5073513;28;20051;-66
2022/10/04 01:16:23;;;;;;;7.70;4.70;;;11.70;99.90;;;;;;5073450;28;20057;-65
2022/10/04 01:18:49;;;;;;;10.23;4.95;;;11.70;99.90;;;;;;5074074;28;20051;-65
2022/10/04 01:21:18;;;;;;;10.73;5.47;;;11.70;99.90;;;;;;5073410;28;20040;-66
2022/10/04 01:24:18;;;;;;;8.02;5.00;;;11.70;99.90;;;;;;5072194;28;20041;-66
2022/10/04 01:26:45;;;;;;;8.38;4.93;;;11.70;99.90;;;;;;5065745;28;20457;-66
2022/10/04 01:29:13;;;;;;;7.28;4.65;;;11.70;99.90;;;;;;5073498;28;20052;-66
2022/10/04 01:31:50;;;;;;;7.22;4.97;;;11.70;99.90;;;;;;5073280;28;20141;-66
2022/10/04 01:34:24;;;;;;;9.23;5.05;;;11.70;99.90;;;;;;5073354;28;20128;-67
2022/10/04 01:36:54;;;;;;;7.95;4.93;;;11.70;99.90;;;;;;5073250;28;20044;-66
2022/10/04 01:39:22;;;;;;;8.68;4.90;;;11.70;99.90;;;;;;5073919;28;20048;-66
2022/10/04 01:41:55;;;;;;;9.32;5.63;;;11.60;99.90;;;;;;5073301;28;20367;-66
2022/10/04 01:44:26;;;;;;;8.52;4.88;;;11.70;99.90;;;;;;5072291;28;20551;-67
2022/10/04 01:46:55;;;;;;;7.25;4.85;;;11.60;99.90;;;;;;5073793;28;20048;-66
2022/10/04 01:49:26;;;;;;;8.80;5.15;;;11.60;99.90;;;;;;5073145;28;20080;-66
2022/10/04 01:52:04;;;;;;;8.32;4.95;;;11.60;99.90;;;;;;5073429;28;20048;-66
2022/10/04 01:54:38;;;;;;;7.32;5.10;;;11.60;99.90;;;;;;5073648;28;20045;-69
2022/10/04 01:57:14;;;;;;;9.35;5.38;;;11.60;99.90;;;;;;5072900;28;20505;-66
2022/10/04 01:59:54;;;;;;;8.82;5.50;;;11.60;99.90;;;;;;5073117;28;20048;-66
2022/10/04 02:02:33;;;;;;;6.40;5.20;;;11.60;99.90;;;;;;5073083;28;20048;-66
2022/10/04 02:05:01;;;;;;;9.93;5.40;;;11.60;99.90;;;;;;5073796;28;20044;-65
2022/10/04 02:07:30;;;;;;;8.82;5.18;;;11.60;99.90;;;;;;5073258;28;20045;-66
2022/10/04 02:10:00;;;;;;;7.25;5.22;;;11.70;99.90;;;;;;5072662;28;20151;-67
2022/10/04 02:12:27;;;;;;;7.22;4.72;;;11.70;99.90;;;;;;5073025;28;20149;-67
2022/10/04 02:14:54;;;;;;;8.55;5.32;;;11.70;99.90;;;;;;5072460;28;20055;-66
2022/10/04 02:17:27;;;;;;;7.50;4.97;;;11.70;99.90;;;;;;5073555;28;20101;-66
2022/10/04 02:19:54;;;;;;;7.60;5.18;;;11.70;99.90;;;;;;5072936;28;20087;-66
2022/10/04 02:22:22;;;;;;;8.25;5.00;;;11.70;99.90;;;;;;5072763;28;20127;-66
2022/10/04 02:24:49;;;;;;;7.25;5.07;;;11.80;99.90;;;;;;5072967;28;20448;-66
2022/10/04 02:27:15;;;;;;;7.57;5.80;;;11.70;99.90;;;;;;5073539;28;20116;-67
2022/10/04 02:29:41;;;;;;;8.75;4.95;;;11.80;99.90;;;;;;5072796;28;20044;-67
2022/10/04 02:34:54;;;;;;;8.98;4.45;;;11.80;99.90;;;;;;5072790;28;20109;-66
2022/10/04 02:37:26;;;;;;;7.55;4.78;;;11.80;99.90;;;;;;5072703;28;20115;-67
2022/10/04 02:39:59;;;;;;;8.07;4.90;;;11.80;99.90;;;;;;5072533;28;20457;-67
2022/10/04 02:42:28;;;;;;;7.63;5.30;;;11.80;99.90;;;;;;5072506;28;20119;-67
2022/10/04 02:45:18;;;;;;;11.05;5.50;;;11.80;99.90;;;;;;5073030;28;20366;-67
2022/10/04 02:47:52;;;;;;;9.27;5.30;;;11.80;99.90;;;;;;5072658;28;20471;-67
2022/10/04 02:50:35;;;;;;;9.00;5.10;;;11.80;99.90;;;;;;5073699;28;20362;-67
2022/10/04 02:53:25;;;;;;;8.43;4.78;;;11.80;99.90;;;;;;5077329;28;20102;-66
2022/10/04 02:55:51;;;;;;;9.30;4.97;;;11.80;99.90;;;;;;5076287;28;20060;-67
2022/10/04 02:58:21;;;;;;;8.77;5.00;;;11.80;99.90;;;;;;5076053;28;20047;-65
2022/10/04 03:00:55;;;;;;;9.40;4.80;;;11.70;99.90;;;;;;5076564;28;20132;-67
2022/10/04 03:03:24;;;;;;;8.02;4.32;;;11.60;99.90;;;;;;5076558;28;20044;-66
2022/10/04 03:06:06;;;;;;;8.63;4.97;;;11.50;99.90;;;;;;5076745;28;20052;-67
2022/10/04 03:08:47;;;;;;;5.90;4.50;;;11.50;99.90;;;;;;5075995;28;20048;-67
2022/10/04 03:11:14;;;;;;;7.63;4.38;;;11.40;99.90;;;;;;5075861;28;20048;-66
2022/10/04 03:13:45;;;;;;;7.82;4.55;;;11.30;99.90;;;;;;5075883;28;20393;-66
2022/10/04 03:16:11;;;;;;;6.30;4.35;;;11.30;99.90;;;;;;5075930;28;20060;-67
2022/10/04 03:18:37;;;;;;;6.85;4.30;;;11.30;99.90;;;;;;5076280;28;20053;-67
2022/10/04 03:21:09;;;;;;;7.30;4.10;;;11.20;99.90;;;;;;5074761;28;20135;-67
2022/10/04 03:23:35;;;;;;;8.13;4.32;;;11.30;99.90;;;;;;5075551;28;20052;-67
2022/10/04 03:26:16;;;;;;;7.93;4.32;;;11.30;99.90;;;;;;5075446;28;20045;-65
2022/10/04 03:28:42;;;;;;;6.32;3.70;;;11.30;99.90;;;;;;5075156;28;20481;-67
2022/10/04 03:31:07;;;;;;;8.48;4.65;;;11.30;99.90;;;;;;5075652;28;20070;-66
2022/10/04 03:33:33;;;;;;;7.35;4.45;;;11.40;99.90;;;;;;5075303;28;20473;-66
2022/10/04 03:36:00;;;;;;;6.78;4.40;;;11.50;99.90;;;;;;5074623;28;20059;-67
2022/10/04 03:38:27;;;;;;;6.68;4.78;;;11.50;99.90;;;;;;5075369;28;20048;-66
2022/10/04 03:41:00;;;;;;;7.22;4.97;;;11.60;99.90;;;;;;5075385;28;20409;-67
2022/10/04 03:43:32;;;;;;;9.55;5.47;;;11.50;99.90;;;;;;5075207;28;20127;-66
2022/10/04 03:46:00;;;;;;;9.02;5.43;;;11.60;99.90;;;;;;5075138;28;20087;-67
2022/10/04 03:48:34;;;;;;;9.98;6.20;;;11.60;99.90;;;;;;5074238;28;20048;-66
2022/10/04 03:51:03;;;;;;;9.38;5.95;;;11.60;99.90;;;;;;5075195;28;20052;-67
2022/10/04 03:53:44;;;;;;;9.63;5.88;;;11.60;99.90;;;;;;5075088;28;20127;-67
2022/10/04 03:56:20;;;;;;;9.65;5.60;;;11.60;99.90;;;;;;5075874;28;20045;-67
2022/10/04 03:58:49;;;;;;;8.43;4.95;;;11.60;99.90;;;;;;5075021;28;20401;-67
2022/10/04 04:01:40;;;;;;;9.43;6.10;;;11.60;99.90;;;;;;5073835;28;20477;-66
2022/10/04 04:04:06;;;;;;;11.50;6.18;;;11.60;99.90;;;;;;5073576;28;20049;-66
2022/10/04 04:06:56;;;;;;;9.88;5.90;;;11.60;99.90;;;;;;5074853;28;20205;-67
2022/10/04 04:10:10;;;;;;;10.80;6.22;;;11.60;99.90;;;;;;5075311;28;20048;-67
2022/10/04 04:13:06;;;;;;;8.30;5.82;;;11.60;99.90;;;;;;5015936;28;20049;-69
2022/10/04 04:15:33;;;;;;;11.73;6.88;;;11.60;99.90;;;;;;5073493;28;20060;-66
2022/10/04 04:18:04;;;;;;;10.77;6.15;;;11.60;99.90;;;;;;5074554;28;20064;-66
2022/10/04 04:20:36;;;;;;;9.52;6.40;;;11.50;99.90;;;;;;5075307;28;20107;-67
2022/10/04 04:23:13;;;;;;;10.00;6.68;;;11.50;99.90;;;;;;5074527;28;20450;-66
2022/10/04 04:25:45;;;;;;;10.38;6.47;;;11.50;99.90;;;;;;5074467;28;20094;-66
2022/10/04 04:28:26;;;;;;;10.10;6.55;;;11.50;99.90;;;;;;5074371;28;20098;-66
2022/10/04 04:31:20;;;;;;;8.45;6.38;;;11.40;99.90;;;;;;5074281;28;20086;-66
2022/10/04 04:33:59;;;;;;;11.30;6.72;;;11.40;99.90;;;;;;5073283;28;20052;-66
2022/10/04 04:36:30;;;;;;;13.25;6.82;;;11.30;99.90;;;;;;5074304;28;20143;-68
2022/10/04 04:41:56;;;;;;;9.40;6.75;;;11.30;99.90;;;;;;5074192;28;20044;-67
2022/10/04 04:44:22;;;;;;;9.80;6.15;;;11.30;99.90;;;;;;5074615;28;20040;-68
2022/10/04 04:46:48;;;;;;;8.68;6.15;;;11.20;99.90;;;;;;5073031;28;20048;-67
2022/10/04 04:49:16;;;;;;;10.25;6.38;;;11.20;99.90;;;;;;5073975;28;20044;-68
2022/10/04 04:51:49;;;;;;;13.10;6.63;;;11.20;99.90;;;;;;5073721;28;20049;-67
2022/10/04 04:54:16;;;;;;;8.82;6.40;;;11.30;99.90;;;;;;5073926;28;20044;-67
2022/10/04 04:56:43;;;;;;;11.25;6.82;;;11.30;99.90;;;;;;5072751;28;20048;-68
2022/10/04 04:59:10;;;;;;;8.88;6.45;;;11.20;99.90;;;;;;5074226;28;20106;-68
2022/10/04 05:01:47;;;;;;;11.23;7.35;;;11.20;99.90;;;;;;5073791;28;20059;-67
2022/10/04 05:04:12;;;;;;;9.10;6.38;;;11.20;99.90;;;;;;5073960;28;20093;-68
2022/10/04 05:06:45;;;;;;;10.98;6.53;;;11.20;99.90;;;;;;5073712;28;20560;-67
2022/10/04 05:09:43;;;;;;;9.68;6.80;;;11.20;99.90;;;;;;5073665;28;20088;-67
2022/10/04 05:12:17;;;;;;;10.05;6.40;;;11.20;99.90;;;;;;5050572;28;20091;-68
2022/10/04 05:14:51;;;;;;;9.38;6.07;;;11.20;99.90;;;;;;5072863;28;20116;-67
2022/10/04 05:17:20;;;;;;;12.18;6.68;;;11.10;99.90;;;;;;5073349;28;20068;-67
2022/10/04 05:19:46;;;;;;;9.50;7.22;;;11.10;99.90;;;;;;5073510;28;20085;-67
2022/10/04 05:22:13;;;;;;;11.65;6.50;;;11.10;99.90;;;;;;5073033;28;20124;-67
2022/10/04 05:24:44;;;;;;;11.60;6.72;;;11.00;99.90;;;;;;5072012;28;20040;-67
2022/10/04 05:27:24;;;;;;;9.90;6.30;;;11.00;99.90;;;;;;5073717;28;20080;-67
2022/10/04 05:30:36;;;;;;;9.05;6.85;;;11.00;99.90;;;;;;5073362;28;20055;-67
2022/10/04 05:33:09;;;;;;;9.80;6.38;;;10.90;99.90;;;;;;5074170;28;20059;-67
2022/10/04 05:36:10;;;;;;;10.07;7.18;;;10.90;99.90;;;;;;5073299;28;20083;-67
2022/10/04 05:38:38;;;;;;;10.73;6.93;;;10.90;99.90;;;;;;5073006;28;20428;-68
2022/10/04 05:41:24;;;;;;;12.27;6.65;;;10.90;99.90;;;;;;5073185;28;20131;-67
2022/10/04 05:43:50;;;;;;;9.90;6.82;;;10.90;99.90;;;;;;5073262;28;20424;-67
2022/10/04 05:46:21;;;;;;;11.68;7.03;;;10.90;99.90;;;;;;5073007;28;20105;-67
2022/10/04 05:48:52;;;;;;;12.18;7.55;;;10.90;99.90;;;;;;5072657;28;20052;-67
2022/10/04 05:51:26;;;;;;;8.48;7.10;;;10.90;99.90;;;;;;5073473;28;20040;-67
2022/10/04 05:53:53;;;;;;;11.25;7.22;;;10.90;99.90;;;;;;5073485;28;20070;-67
2022/10/04 05:56:48;;;;;;;9.30;7.18;;;10.80;99.90;;;;;;5073181;28;20127;-67
2022/10/04 05:59:35;;;;;;;8.98;6.90;;;10.90;99.90;;;;;;5073097;28;20044;-67
2022/10/04 06:02:32;;;;;;;8.10;6.63;;;10.90;99.90;;;;;;5073138;28;20049;-67
2022/10/04 06:05:10;;;;;;;11.23;7.75;;;10.80;99.90;;;;;;5058529;28;20122;-67
2022/10/04 06:07:52;;;;;;;10.50;7.43;;;10.90;99.90;;;;;;5073257;28;20094;-67
2022/10/04 06:11:19;;;;;;;11.18;6.97;;;10.90;99.90;;;;;;5073512;28;20052;-63
2022/10/04 06:14:13;;;;;;;10.55;7.50;;;10.90;99.90;;;;;;4971278;28;20058;-64
2022/10/04 06:17:05;;;;;;;9.43;6.95;;;10.90;99.90;;;;;;5073131;28;20060;-64
2022/10/04 06:20:04;;;;;;;10.70;7.63;;;10.90;99.90;;;;;;5073018;28;20504;-64
2022/10/04 06:22:31;;;;;;;9.90;7.28;;;10.90;99.90;;;;;;5072839;28;20480;-64
2022/10/04 06:25:13;;;;;;;12.43;7.57;;;10.90;99.90;;;;;;5072746;28;20071;-64
2022/10/04 06:27:40;;;;;;;11.10;7.90;;;10.90;99.90;;;;;;5077005;28;20477;-64
2022/10/04 06:30:17;;;;;;;12.43;8.10;;;10.80;99.90;;;;;;5076474;28;20048;-64
2022/10/04 06:33:12;;;;;;;13.73;8.25;;;10.90;99.90;;;;;;5077206;28;20397;-64
2022/10/04 06:35:44;;;;;;;12.50;7.53;;;10.80;99.90;;;;;;5076634;28;20049;-64
2022/10/04 06:38:43;;;;;;;12.00;7.57;;;10.80;99.90;;;;;;5076461;28;20485;-64
2022/10/04 06:41:12;;;;;;;11.85;8.18;;;10.90;99.90;;;;;;5075796;28;20398;-64
2022/10/04 06:43:37;;;;;;;10.48;7.80;;;10.90;99.90;;;;;;5076305;28;20485;-63
2022/10/04 06:46:12;;;;;;;13.43;8.00;;;10.90;99.90;;;;;;5076165;28;20051;-64
2022/10/04 06:49:20;;;;;;;8.90;7.83;;;11.00;99.90;;;;;;5075646;28;20084;-64
2022/10/04 06:51:58;;;;;;;10.60;8.38;;;11.00;99.90;;;;;;5076119;28;20365;-63
2022/10/04 06:54:57;;;;;;;11.20;7.57;;;11.00;99.90;;;;;;5076755;28;20044;-64
2022/10/04 06:57:53;;;;;;;12.38;8.10;;;11.10;99.90;;;;;;5076965;28;20127;-64
2022/10/04 07:00:25;;;;;;;11.15;8.05;;;11.20;99.90;;;;;;5076085;28;20083;-63
2022/10/04 07:03:03;;;;;;;12.82;7.90;;;11.20;99.90;;;;;;5075905;28;20044;-63
2022/10/04 07:05:46;;;;;;;11.68;8.02;;;11.20;99.90;;;;;;5058314;28;20124;-66
2022/10/04 07:08:38;;;;;;;11.25;8.07;;;11.20;99.90;;;;;;5075754;28;20483;-64
2022/10/04 07:11:42;;;;;;;10.65;7.55;;;11.30;99.90;;;;;;5076440;28;20052;-64
2022/10/04 07:14:19;;;;;;;10.27;7.82;;;11.40;99.90;;;;;;5074664;28;20057;-63
2022/10/04 07:16:48;;;;;;;9.98;8.00;;;11.40;99.90;;;;;;5075891;28;20063;-63
2022/10/04 07:19:21;;;;;;;11.98;7.80;;;11.50;99.90;;;;;;5075541;28;20053;-63
2022/10/04 07:22:11;;;;;;;12.18;7.55;;;11.60;99.90;;;;;;5075707;28;20133;-64
2022/10/04 07:24:55;;;;;;;12.57;8.50;;;11.70;99.90;;;;;;5076247;28;20095;-64
2022/10/04 07:27:29;;;;;;;11.63;8.25;;;11.80;99.90;;;;;;5075571;28;20087;-64
2022/10/04 07:29:56;;;;;;;10.73;7.75;;;12.00;99.90;;;;;;5075327;28;20102;-64
2022/10/04 07:32:30;;;;;;;11.25;7.47;;;12.10;99.90;;;;;;5057101;28;20508;-63
2022/10/04 07:35:15;;;;;;;11.35;7.80;;;12.10;99.90;;;;;;5075344;28;20045;-63
2022/10/04 07:38:08;;;;;;;12.32;7.20;;;12.30;99.90;;;;;;5075981;28;20101;-63
2022/10/04 07:40:40;;;;;;;11.95;7.55;;;12.30;99.90;;;;;;5075274;28;20044;-63
2022/10/04 07:43:19;;;;;;;9.63;6.78;;;12.50;99.90;;;;;;5075016;28;20044;-62
2022/10/04 07:45:47;;;;;;;10.07;7.22;;;12.50;99.90;;;;;;5075089;28;20076;-63
2022/10/04 07:48:18;;;;;;;9.13;6.18;;;12.70;99.90;;;;;;5075086;28;20044;-63
2022/10/04 07:51:08;;;;;;;7.57;6.30;;;12.80;99.90;;;;;;5075664;28;20040;-63
2022/10/04 07:53:50;;;;;;;10.32;7.10;;;13.00;99.90;;;;;;5074813;28;20059;-63
2022/10/04 07:56:37;;;;;;;9.05;6.55;;;13.10;99.90;;;;;;5075105;28;20049;-63
2022/10/04 07:59:35;;;;;;;8.80;6.47;;;13.30;99.90;;;;;;5075247;28;20481;-62
2022/10/04 08:02:38;;;;;;;8.13;6.30;;;13.40;99.90;;;;;;5074861;28;20052;-63
2022/10/04 08:05:27;;;;;;;8.00;6.30;;;13.40;99.90;;;;;;5075349;28;20048;-63
2022/10/04 08:07:55;;;;;;;10.77;6.18;;;13.30;99.90;;;;;;5075105;28;20049;-64
2022/10/04 08:10:30;;;;;;;9.32;5.78;;;13.20;99.90;;;;;;5074707;28;20114;-64
2022/10/04 08:13:20;;;;;;;7.57;6.05;;;13.20;99.90;;;;;;5075238;28;20045;-63
2022/10/04 08:15:47;;;;;;;9.45;5.78;;;13.20;99.90;;;;;;5074453;28;20504;-63
2022/10/04 08:18:46;;;;;;;9.90;6.15;;;13.30;99.90;;;;;;5074703;28;20146;-63
2022/10/04 08:21:35;;;;;;;8.55;5.63;;;13.60;99.90;;;;;;5075184;28;20435;-64
2022/10/04 08:24:25;;;;;;;9.85;5.55;;;13.80;99.90;;;;;;5074725;28;20376;-63
2022/10/04 08:27:22;;;;;;;8.55;6.00;;;13.90;99.90;;;;;;5075223;28;20396;-63
2022/10/04 08:30:05;;;;;;;8.90;6.20;;;14.00;99.90;;;;;;5074917;28;20435;-63
2022/10/04 08:33:05;;;;;;;7.15;4.93;;;14.20;99.90;;;;;;5074098;28;20190;-63
2022/10/04 08:36:05;;;;;;;7.82;5.35;;;14.20;99.90;;;;;;5074757;28;20383;-63
2022/10/04 08:38:43;;;;;;;7.25;4.72;;;14.30;99.90;;;;;;5074755;28;20053;-64
2022/10/04 08:41:23;;;;;;;7.13;4.50;;;14.40;99.90;;;;;;5074152;28;20052;-63
2022/10/04 08:44:22;;;;;;;5.32;4.50;;;14.40;99.90;;;;;;5074095;28;20044;-63
2022/10/04 08:47:07;;;;;;;8.40;4.05;;;14.30;99.90;;;;;;5073757;28;20075;-63
2022/10/04 08:50:24;;;;;;;6.57;4.38;;;14.10;99.90;;;;;;5072679;28;20084;-63
2022/10/04 08:53:27;;;;;;;6.35;3.85;;;14.10;99.90;;;;;;5051099;28;20143;-63
2022/10/04 08:56:09;;;;;;;7.28;4.13;;;14.10;99.90;;;;;;5073884;28;20150;-63
2022/10/04 08:58:53;;;;;;;7.43;4.25;;;14.20;99.90;;;;;;5073907;28;20044;-63
2022/10/04 09:01:44;;;;;;;6.03;3.83;;;14.40;99.90;;;;;;5074256;28;20465;-64
2022/10/04 09:04:18;;;;;;;6.07;3.80;;;14.50;99.90;;;;;;5073616;28;20041;-63
2022/10/04 09:06:44;;;;;;;7.13;4.20;;;14.60;99.90;;;;;;5073667;28;20071;-63
2022/10/04 09:09:43;;;;;;;4.80;3.72;;;14.60;99.90;;;;;;5073624;28;20049;-63
2022/10/04 09:12:43;;;;;;;6.55;4.30;;;14.60;99.90;;;;;;5072893;28;20048;-63
2022/10/04 09:15:25;;;;;;;5.00;3.70;;;14.70;99.90;;;;;;5073530;28;20140;-63
2022/10/04 09:18:29;;;;;;;5.30;3.85;;;14.70;99.90;;;;;;5074339;28;20055;-63
2022/10/04 09:21:18;;;;;;;6.28;3.90;;;14.80;99.90;;;;;;5073569;28;20044;-63
2022/10/04 09:23:56;;;;;;;5.95;4.43;;;14.80;99.90;;;;;;5053460;28;20398;-63
2022/10/04 09:26:32;;;;;;;6.63;4.32;;;14.90;99.90;;;;;;5072387;28;20053;-63
2022/10/04 09:29:25;;;;;;;5.18;3.97;;;15.00;99.90;;;;;;5074038;28;20199;-63
2022/10/04 09:32:13;;;;;;;5.95;3.65;;;15.10;99.90;;;;;;5073925;28;20041;-63
2022/10/04 09:35:14;;;;;;;6.88;4.03;;;15.20;99.90;;;;;;5073395;28;20041;-62
2022/10/04 09:37:58;;;;;;;5.15;3.70;;;15.20;99.90;;;;;;5073421;28;20090;-62
2022/10/04 09:40:46;;;;;;;7.18;4.20;;;15.20;99.90;;;;;;5073142;28;20132;-63
2022/10/04 09:44:11;;;;;;;6.68;4.07;;;15.30;99.90;;;;;;5073011;28;20056;-64
2022/10/04 09:46:56;;;;;;;5.38;3.90;;;15.30;99.90;;;;;;5031146;28;20049;-63
2022/10/04 09:49:26;;;;;;;6.47;4.28;;;15.30;99.90;;;;;;5031036;28;20045;-66
2022/10/04 09:52:16;;;;;;;6.70;4.13;;;15.30;99.90;;;;;;5057782;28;20067;-65
2022/10/04 09:55:12;;;;;;;6.72;4.20;;;15.40;99.90;;;;;;5073626;28;20155;-64
2022/10/04 09:57:47;;;;;;;5.75;4.63;;;15.50;99.90;;;;;;5073601;28;20091;-64
2022/10/04 10:00:48;;;;;;;6.18;4.30;;;15.40;99.90;;;;;;5073222;28;20048;-66
2022/10/04 10:03:35;;;;;;;8.38;4.60;;;15.50;99.90;;;;;;5069988;28;20060;-63
2022/10/04 10:06:30;;;;;;;7.45;4.90;;;15.50;99.90;;;;;;5076881;28;20527;-63
2022/10/04 10:09:15;;;;;;;6.85;4.50;;;15.50;99.90;;;;;;5077381;28;20072;-63
2022/10/04 10:15:13;;;;;;;7.28;4.40;;;15.70;99.90;;;;;;5076864;28;20047;-64
2022/10/04 10:17:50;;;;;;;6.88;4.63;;;15.70;99.90;;;;;;5077393;28;20078;-63
2022/10/04 10:20:31;;;;;;;6.10;4.10;;;15.70;99.90;;;;;;5077356;28;20131;-64
2022/10/04 10:23:20;;;;;;;7.80;4.85;;;15.70;99.90;;;;;;5077133;28;20051;-64
2022/10/04 10:26:13;;;;;;;7.57;3.95;;;15.60;99.90;;;;;;5077089;28;20044;-65
2022/10/04 10:29:05;;;;;;;6.50;4.20;;;15.60;99.90;;;;;;5077507;28;20081;-64
2022/10/04 10:31:58;;;;;;;6.65;4.45;;;15.70;99.90;;;;;;5076177;28;20393;-63
2022/10/04 10:34:27;;;;;;;7.95;4.07;;;15.70;99.90;;;;;;5077278;28;20041;-62
2022/10/04 10:37:11;;;;;;;5.03;3.80;;;15.60;99.90;;;;;;5076509;28;20052;-62
2022/10/04 10:40:06;;;;;;;6.00;3.80;;;15.60;99.90;;;;;;5076968;28;20102;-62
2022/10/04 10:42:41;;;;;;;7.90;4.28;;;15.60;99.90;;;;;;5075681;28;20171;-62
2022/10/04 10:45:09;;;;;;;5.50;3.60;;;15.60;99.90;;;;;;5076151;28;20040;-62
2022/10/04 10:47:58;;;;;;;5.55;3.70;;;15.70;99.90;;;;;;5076267;28;20047;-63
2022/10/04 10:50:58;;;;;;;6.93;3.20;;;15.80;99.90;;;;;;5076601;28;20397;-62
2022/10/04 10:53:48;;;;;;;6.32;3.50;;;15.80;99.90;;;;;;5076215;28;20041;-64
2022/10/04 10:56:51;;;;;;;5.18;3.40;;;15.90;99.90;;;;;;5076267;28;20044;-62
2022/10/04 10:59:46;;;;;;;5.65;3.50;;;15.90;99.90;;;;;;5076036;28;20048;-62
2022/10/04 11:02:35;;;;;;;5.95;3.20;;;16.00;99.90;;;;;;5075403;28;20045;-62
2022/10/04 11:05:38;;;;;;;7.55;3.50;;;16.00;99.90;;;;;;5076321;28;20052;-62
2022/10/04 11:08:34;;;;;;;5.70;3.47;;;16.00;99.90;;;;;;5075960;28;20041;-62
2022/10/04 11:11:08;;;;;;;4.03;3.17;;;16.00;99.90;;;;;;5075320;28;20059;-63
2022/10/04 11:14:11;;;;;;;5.70;3.60;;;16.00;99.90;;;;;;5076112;28;20048;-62
2022/10/04 11:16:40;;;;;;;6.35;3.92;;;16.10;99.90;;;;;;5075487;28;20061;-63
2022/10/04 11:19:52;;;;;;;5.28;3.25;;;16.10;99.90;;;;;;5075739;28;20056;-63
2022/10/04 11:22:43;;;;;;;5.60;3.40;;;16.10;99.90;;;;;;5075728;28;20101;-63
2022/10/04 11:25:38;;;;;;;5.20;3.03;;;16.10;99.90;;;;;;5076741;28;20040;-62
2022/10/04 11:28:45;;;;;;;5.07;3.17;;;16.20;99.90;;;;;;5075611;28;20048;-64
2022/10/04 11:31:57;;;;;;;4.38;3.03;;;16.20;99.90;;;;;;5075548;28;20049;-63
2022/10/04 11:34:58;;;;;;;5.20;3.10;;;16.20;99.90;;;;;;5076002;28;20052;-63
2022/10/04 11:37:47;;;;;;;4.75;2.92;;;16.30;99.90;;;;;;5076158;28;20044;-62
2022/10/04 11:40:42;;;;;;;5.40;3.38;;;16.30;99.90;;;;;;5076194;28;20050;-64
2022/10/04 11:43:23;;;;;;;4.93;3.30;;;16.30;99.90;;;;;;5054226;28;20113;-63
2022/10/04 11:46:22;;;;;;;6.78;3.47;;;16.30;99.90;;;;;;5075405;28;20052;-63
2022/10/04 11:49:03;;;;;;;5.20;2.92;;;16.40;99.90;;;;;;5075015;28;20049;-63
2022/10/04 11:51:57;;;;;;;5.72;2.97;;;16.40;99.90;;;;;;5075453;28;20048;-63
2022/10/04 11:54:46;;;;;;;4.32;2.80;;;16.40;99.90;;;;;;5075390;28;20397;-62
2022/10/04 11:57:13;;;;;;;6.07;3.28;;;16.40;99.90;;;;;;5075521;28;20054;-62
2022/10/04 12:00:03;;;;;;;6.20;3.17;;;16.50;99.90;;;;;;5075539;28;20169;-63
2022/10/04 12:02:54;;;;;;;4.57;3.05;;;16.50;99.90;;;;;;5074995;28;20040;-63
2022/10/04 12:05:34;;;;;;;4.50;3.20;;;16.50;99.90;;;;;;5074800;28;20044;-63
2022/10/04 12:08:10;;;;;;;4.68;3.03;;;16.50;99.90;;;;;;5075551;28;20063;-62
2022/10/04 12:10:38;;;;;;;3.20;2.50;;;16.60;99.90;;;;;;5075514;28;20060;-62
2022/10/04 12:13:30;;;;;;;4.32;2.50;;;16.70;99.90;;;;;;5075149;28;20504;-62
2022/10/04 12:16:27;;;;;;;4.30;2.20;;;16.60;99.90;;;;;;5072531;28;20401;-64
2022/10/04 12:19:12;;;;;;;;;;;16.50;99.90;;;;;;5075899;28;20087;-64
2022/10/04 12:21:53;;;;;;;5.05;2.80;;;16.50;99.90;;;;;;5074807;28;19928;-64
2022/10/04 12:24:56;;;;;;;3.45;2.50;;;16.50;99.90;;;;;;5074052;28;20045;-64
2022/10/04 12:27:59;;;;;;;4.10;2.58;;;16.60;99.90;;;;;;5074939;28;20094;-64
2022/10/04 12:30:31;;;;;;;4.13;2.40;;;16.70;99.90;;;;;;5074312;28;20045;-64
2022/10/04 12:33:05;;;;;;;3.83;2.65;;;16.80;99.90;;;;;;5074221;28;20045;-65
2022/10/04 12:35:46;;;;;;;6.93;2.83;;;16.90;99.90;;;;;;5074753;28;20386;-64
2022/10/04 12:38:35;;;;;;;4.85;3.25;;;16.90;99.90;;;;;;5074095;28;20052;-64
2022/10/04 12:41:18;;;;;;;4.50;2.95;;;16.90;99.90;;;;;;5074190;28;20092;-65
2022/10/04 12:43:55;;;;;;;5.03;3.28;;;16.80;99.90;;;;;;5074606;28;20055;-65
2022/10/04 12:46:28;;;;;;;4.80;3.17;;;16.70;99.90;;;;;;5074357;28;20432;-65
2022/10/04 12:49:12;;;;;;;5.13;2.88;;;16.80;99.90;;;;;;5073871;28;20060;-64
2022/10/04 12:51:57;;;;;;;3.85;2.50;;;16.70;99.90;;;;;;5073924;28;20094;-64
2022/10/04 12:54:51;;;;;;;5.05;2.70;;;16.80;99.90;;;;;;5074223;28;20045;-63
2022/10/04 12:57:32;;;;;;;5.03;2.92;;;16.80;99.90;;;;;;5066314;28;20052;-62
2022/10/04 13:00:13;;;;;;;5.05;3.20;;;16.80;99.90;;;;;;5074096;28;20048;-62
2022/10/04 13:03:07;;;;;;;4.68;3.10;;;16.80;99.90;;;;;;5073790;28;20087;-63
2022/10/04 13:06:03;;;;;;;4.57;3.17;;;16.80;99.90;;;;;;5073629;28;20048;-63
2022/10/04 13:08:41;;;;;;;6.38;3.42;;;16.80;99.90;;;;;;5074544;28;20460;-62
2022/10/04 13:11:23;;;;;;;7.25;3.92;;;16.70;99.90;;;;;;5073711;28;20051;-63
2022/10/04 13:13:59;;;;;;;6.07;3.30;;;16.70;99.90;;;;;;5073309;28;20109;-64
2022/10/04 13:16:37;;;;;;;7.38;3.50;;;16.70;99.90;;;;;;5073021;28;20139;-63
2022/10/04 13:19:14;;;;;;;4.90;3.15;;;16.80;99.90;;;;;;5073710;28;20381;-63
2022/10/04 13:21:45;;;;;;;6.10;3.25;;;16.80;99.90;;;;;;5073845;28;20492;-64
2022/10/04 13:24:30;;;;;;;5.05;3.20;;;16.70;99.90;;;;;;5073641;28;20050;-62
2022/10/04 13:27:04;;;;;;;6.22;3.35;;;16.70;99.90;;;;;;5073659;28;20077;-63
2022/10/04 13:29:32;;;;;;;4.28;2.90;;;16.80;99.90;;;;;;5072077;28;20079;-63
2022/10/04 13:32:26;;;;;;;5.55;3.00;;;16.80;99.90;;;;;;5073301;28;20082;-63
2022/10/04 13:35:21;;;;;;;5.47;3.20;;;16.80;99.90;;;;;;5073600;28;20037;-63
2022/10/04 13:38:05;;;;;;;4.18;3.08;;;16.80;99.90;;;;;;5073275;28;20048;-63
2022/10/04 13:40:54;;;;;;;4.07;3.13;;;16.90;99.90;;;;;;5073799;28;20064;-64
2022/10/04 13:43:32;;;;;;;7.25;3.30;;;16.90;99.90;;;;;;5073707;28;20384;-64
2022/10/04 13:46:11;;;;;;;4.47;2.90;;;16.90;99.90;;;;;;5071999;28;20081;-61
2022/10/04 13:49:14;;;;;;;6.30;3.10;;;16.80;99.90;;;;;;5073213;28;20044;-63
2022/10/04 13:58:23;;;;;;;4.22;3.00;;;16.40;99.90;;;;;;5073851;28;20132;-62
2022/10/04 14:01:18;;;;;;;6.20;3.17;;;16.50;99.90;;;;;;5049415;28;20056;-63
2022/10/04 14:04:07;;;;;;;4.47;2.90;;;16.60;99.90;;;;;;5057760;28;20098;-62
2022/10/04 14:06:56;;;;;;;4.85;2.80;;;16.70;99.90;;;;;;5073007;28;20055;-61
2022/10/04 14:09:58;;;;;;;5.10;2.70;;;16.80;99.90;;;;;;5071820;28;20187;-62
2022/10/04 14:12:46;;;;;;;5.50;2.90;;;16.80;99.90;;;;;;5073462;28;20045;-63